createdAt,value
2018-05-27T00:01:32.369Z,91.12
2018-05-27T00:03:59.835Z,90.65
2018-05-27T00:06:27.374Z,90.43
2018-05-27T00:08:54.866Z,90.92
2018-05-27T00:11:22.481Z,91.32
2018-05-27T00:13:50.104Z,91.54
2018-05-27T00:16:17.538Z,91.70
2018-05-27T00:18:45.257Z,91.76
2018-05-27T00:21:12.955Z,91.72
2018-05-27T00:23:40.493Z,91.40
2018-05-27T00:26:08.898Z,90.84
2018-05-27T00:28:36.401Z,91.02
2018-05-27T00:31:03.923Z,91.30
2018-05-27T00:33:31.035Z,91.57
2018-05-27T00:35:58.616Z,91.95
2018-05-27T00:38:26.151Z,91.91
2018-05-27T00:40:53.989Z,91.81
2018-05-27T00:43:21.829Z,91.80
2018-05-27T00:45:49.589Z,91.82
2018-05-27T00:48:17.310Z,92.25
2018-05-27T00:50:44.840Z,92.13
2018-05-27T00:53:15.033Z,92.29
2018-05-27T00:55:42.654Z,92.50
2018-05-27T00:58:10.111Z,92.30
2018-05-27T01:00:37.808Z,92.21
2018-05-27T01:03:05.592Z,92.17
2018-05-27T01:05:33.228Z,92.46
2018-05-27T01:08:00.918Z,92.40
2018-05-27T01:10:28.473Z,92.39
2018-05-27T01:12:56.581Z,92.36
2018-05-27T01:15:24.640Z,92.76
2018-05-27T01:17:52.103Z,92.64
2018-05-27T01:20:19.685Z,92.54
2018-05-27T01:22:47.512Z,92.34
2018-05-27T01:25:15.255Z,92.35
2018-05-27T01:27:42.920Z,92.19
2018-05-27T01:30:10.556Z,92.66
2018-05-27T01:32:38.007Z,92.59
2018-05-27T01:35:05.706Z,92.74
2018-05-27T01:37:33.225Z,92.72
2018-05-27T01:40:00.913Z,92.94
2018-05-27T01:42:28.552Z,92.69
2018-05-27T01:44:56.307Z,92.26
2018-05-27T01:47:23.946Z,92.61
2018-05-27T01:49:51.608Z,92.70
2018-05-27T01:52:19.215Z,93.09
2018-05-27T01:54:47.671Z,92.95
2018-05-27T01:57:16.152Z,92.93
2018-05-27T01:59:43.719Z,92.68
2018-05-27T02:02:11.262Z,92.10
2018-05-27T02:04:39.364Z,92.06
2018-05-27T02:07:07.108Z,92.74
2018-05-27T02:09:34.572Z,92.97
2018-05-27T02:12:02.036Z,92.98
2018-05-27T02:14:30.513Z,92.75
2018-05-27T02:16:58.407Z,93.24
2018-05-27T02:19:26.022Z,93.49
2018-05-27T02:21:53.548Z,93.72
2018-05-27T02:24:21.127Z,93.81
2018-05-27T02:26:49.152Z,93.71
2018-05-27T02:29:16.592Z,93.99
2018-05-27T02:31:44.138Z,93.97
2018-05-27T02:34:11.801Z,93.98
2018-05-27T02:36:40.362Z,93.89
2018-05-27T02:39:07.844Z,93.74
2018-05-27T02:41:35.619Z,93.76
2018-05-27T02:44:03.378Z,93.55
2018-05-27T02:46:30.892Z,93.57
2018-05-27T02:48:58.456Z,93.72
2018-05-27T02:51:26.048Z,93.65
2018-05-27T02:53:53.628Z,93.67
2018-05-27T02:56:21.153Z,93.75
2018-05-27T02:58:48.722Z,93.70
2018-05-27T03:01:16.171Z,93.68
2018-05-27T03:03:43.697Z,93.38
2018-05-27T03:06:11.257Z,93.12
2018-05-27T03:08:38.768Z,93.18
2018-05-27T03:11:06.227Z,93.30
2018-05-27T03:13:33.778Z,93.42
2018-05-27T03:16:01.309Z,93.45
2018-05-27T03:18:28.998Z,93.54
2018-05-27T03:20:56.461Z,93.55
2018-05-27T03:23:24.027Z,93.59
2018-05-27T03:25:51.489Z,93.73
2018-05-27T03:28:18.972Z,93.76
2018-05-27T03:30:46.606Z,93.87
2018-05-27T03:33:14.245Z,93.64
2018-05-27T03:35:41.872Z,93.35
2018-05-27T03:38:09.632Z,93.01
2018-05-27T03:40:37.292Z,92.34
2018-05-27T03:43:04.878Z,92.07
2018-05-27T03:45:32.557Z,91.69
2018-05-27T03:48:00.097Z,91.75
2018-05-27T03:50:27.717Z,91.76
2018-05-27T03:52:55.607Z,92.03
2018-05-27T03:55:23.188Z,91.95
2018-05-27T03:57:50.787Z,91.53
2018-05-27T04:00:18.367Z,91.06
2018-05-27T04:02:46.273Z,90.69
2018-05-27T04:08:29.847Z,90.02
2018-05-27T04:10:57.912Z,90.25
2018-05-27T04:13:25.373Z,90.11
2018-05-27T04:15:53.008Z,90.25
2018-05-27T04:18:20.490Z,90.31
2018-05-27T04:20:48.048Z,90.02
2018-05-27T04:23:15.652Z,90.02
2018-05-27T04:25:43.283Z,90.07
2018-05-27T04:28:10.769Z,90.27
2018-05-27T04:30:38.227Z,90.12
2018-05-27T04:33:05.823Z,89.85
2018-05-27T04:35:33.594Z,89.71
2018-05-27T04:38:01.119Z,89.62
2018-05-27T04:40:29.093Z,89.67
2018-05-27T04:42:56.684Z,89.79
2018-05-27T04:45:24.191Z,89.73
2018-05-27T04:47:51.738Z,89.72
2018-05-27T04:50:19.509Z,89.82
2018-05-27T04:52:47.166Z,89.77
2018-05-27T04:55:14.746Z,90.04
2018-05-27T04:57:42.202Z,90.13
2018-05-27T05:00:09.718Z,89.73
2018-05-27T05:02:38.532Z,88.94
2018-05-27T05:05:06.012Z,88.49
2018-05-27T05:07:33.487Z,88.50
2018-05-27T05:10:01.088Z,87.70
2018-05-27T05:12:28.598Z,87.38
2018-05-27T05:14:56.095Z,86.38
2018-05-27T05:17:23.699Z,85.99
2018-05-27T05:19:52.096Z,85.47
2018-05-27T05:22:19.758Z,84.89
2018-05-27T05:24:47.362Z,84.57
2018-05-27T05:27:14.854Z,84.28
2018-05-27T05:29:42.482Z,83.67
2018-05-27T05:32:10.624Z,82.71
2018-05-27T05:34:38.077Z,81.60
2018-05-27T05:37:05.795Z,80.83
2018-05-27T05:39:33.374Z,79.04
2018-05-27T05:42:00.970Z,78.52
2018-05-27T05:44:28.769Z,77.26
2018-05-27T05:46:56.340Z,75.50
2018-05-27T05:49:24.496Z,73.03
2018-05-27T05:51:51.955Z,71.97
2018-05-27T05:54:19.524Z,70.52
2018-05-27T05:56:47.102Z,68.28
2018-05-27T05:59:14.627Z,66.25
2018-05-27T06:01:42.048Z,68.09
2018-05-27T06:04:09.499Z,66.75
2018-05-27T06:06:37.152Z,67.19
2018-05-27T06:09:04.805Z,66.03
2018-05-27T06:11:32.620Z,65.92
2018-05-27T06:14:00.260Z,67.54
2018-05-27T06:16:28.480Z,67.59
2018-05-27T06:18:55.998Z,67.45
2018-05-27T06:21:23.526Z,67.53
2018-05-27T06:23:51.120Z,65.95
2018-05-27T06:26:18.704Z,65.03
2018-05-27T06:28:46.858Z,65.06
2018-05-27T06:31:14.470Z,63.95
2018-05-27T06:33:42.239Z,62.95
2018-05-27T06:36:09.783Z,64.13
2018-05-27T06:38:37.264Z,62.84
2018-05-27T06:41:04.739Z,61.74
2018-05-27T06:43:32.438Z,60.61
2018-05-27T06:46:00.508Z,59.77
2018-05-27T06:48:28.029Z,60.41
2018-05-27T06:50:55.544Z,56.17
2018-05-27T06:53:23.200Z,53.57
2018-05-27T06:55:51.016Z,50.52
2018-05-27T06:58:18.474Z,48.47
2018-05-27T07:00:46.150Z,47.76
2018-05-27T07:03:14.239Z,45.79
2018-05-27T07:05:41.764Z,46.20
2018-05-27T07:08:09.771Z,40.82
2018-05-27T07:10:37.359Z,40.98
2018-05-27T07:13:05.056Z,41.44
2018-05-27T07:15:32.663Z,40.40
2018-05-27T07:18:00.669Z,37.82
2018-05-27T07:20:29.540Z,37.24
2018-05-27T07:22:57.174Z,35.98
2018-05-27T07:25:24.895Z,36.68
2018-05-27T07:27:52.421Z,36.83
2018-05-27T07:30:20.277Z,39.16
2018-05-27T07:32:48.355Z,39.54
2018-05-27T07:35:16.120Z,39.97
2018-05-27T07:37:43.674Z,37.53
2018-05-27T07:40:11.183Z,36.65
2018-05-27T07:42:38.824Z,35.77
2018-05-27T07:45:06.307Z,37.13
2018-05-27T07:47:33.875Z,36.14
2018-05-27T07:50:01.341Z,37.89
2018-05-27T07:52:28.805Z,35.01
2018-05-27T07:54:56.564Z,35.18
2018-05-27T07:57:24.194Z,34.44
2018-05-27T07:59:51.678Z,35.61
2018-05-27T08:02:19.182Z,33.89
2018-05-27T08:04:47.070Z,34.51
2018-05-27T08:07:14.622Z,35.40
2018-05-27T08:09:42.141Z,34.37
2018-05-27T08:12:09.659Z,34.84
2018-05-27T08:14:37.134Z,32.54
2018-05-27T08:17:04.605Z,33.33
2018-05-27T08:19:32.320Z,32.61
2018-05-27T08:21:59.830Z,32.25
2018-05-27T08:24:28.015Z,31.79
2018-05-27T08:26:55.574Z,32.31
2018-05-27T08:29:23.067Z,29.26
2018-05-27T08:31:51.622Z,30.45
2018-05-27T08:34:19.200Z,28.17
2018-05-27T08:36:46.739Z,28.32
2018-05-27T08:39:14.239Z,29.12
2018-05-27T08:41:41.743Z,31.37
2018-05-27T08:44:09.279Z,30.66
2018-05-27T08:46:36.762Z,30.63
2018-05-27T08:49:04.410Z,29.37
2018-05-27T08:51:32.078Z,30.88
2018-05-27T08:53:59.794Z,28.81
2018-05-27T08:56:27.596Z,32.53
2018-05-27T08:58:55.053Z,30.10
2018-05-27T09:01:22.755Z,33.01
2018-05-27T09:03:50.299Z,34.20
2018-05-27T09:06:18.429Z,30.65
2018-05-27T09:08:45.951Z,28.85
2018-05-27T09:11:13.608Z,28.71
2018-05-27T09:13:41.264Z,29.77
2018-05-27T09:16:09.604Z,31.25
2018-05-27T09:18:37.156Z,30.16
2018-05-27T09:21:04.931Z,31.75
2018-05-27T09:23:32.596Z,32.00
2018-05-27T09:26:00.091Z,32.41
2018-05-27T09:28:27.649Z,31.04
2018-05-27T09:30:55.254Z,28.77
2018-05-27T09:33:22.930Z,29.95
2018-05-27T09:35:50.584Z,31.26
2018-05-27T09:38:18.595Z,32.28
2018-05-27T09:40:46.031Z,30.67
2018-05-27T09:43:13.524Z,30.00
2018-05-27T09:45:41.045Z,29.85
2018-05-27T09:48:08.761Z,30.73
2018-05-27T09:50:37.126Z,30.87
2018-05-27T09:53:04.615Z,29.48
2018-05-27T09:55:32.321Z,27.78
2018-05-27T09:57:59.955Z,24.29
2018-05-27T10:00:27.925Z,25.76
2018-05-27T10:02:55.504Z,26.39
2018-05-27T10:05:23.480Z,25.81
2018-05-27T10:07:51.062Z,23.93
2018-05-27T10:10:18.766Z,22.57
2018-05-27T10:12:47.347Z,21.24
2018-05-27T10:15:15.621Z,22.55
2018-05-27T10:17:43.332Z,22.54
2018-05-27T10:20:11.099Z,21.94
2018-05-27T10:22:38.584Z,21.27
2018-05-27T10:25:06.089Z,21.27
2018-05-27T10:27:33.700Z,18.43
2018-05-27T10:30:01.234Z,19.57
2018-05-27T10:32:30.555Z,19.42
2018-05-27T10:34:58.376Z,18.46
2018-05-27T10:37:26.012Z,21.30
2018-05-27T10:39:54.155Z,17.80
2018-05-27T10:42:21.810Z,17.50
2018-05-27T10:44:49.465Z,18.18
2018-05-27T10:47:17.231Z,20.78
2018-05-27T10:49:44.740Z,19.76
2018-05-27T10:52:12.398Z,15.74
2018-05-27T10:54:39.874Z,15.05
2018-05-27T10:57:08.155Z,16.65
2018-05-27T10:59:36.150Z,16.22
2018-05-27T11:02:03.765Z,16.44
2018-05-27T11:04:31.557Z,14.64
2018-05-27T11:06:59.056Z,14.68
2018-05-27T11:09:26.552Z,15.02
2018-05-27T11:11:54.036Z,14.86
2018-05-27T11:14:21.725Z,15.19
2018-05-27T11:16:49.436Z,16.18
2018-05-27T11:19:17.007Z,15.41
2018-05-27T11:21:44.619Z,17.73
2018-05-27T11:24:12.146Z,15.90
2018-05-27T11:26:39.702Z,13.72
2018-05-27T11:29:07.250Z,12.71
2018-05-27T11:31:34.886Z,11.39
2018-05-27T11:34:03.195Z,13.21
2018-05-27T11:36:31.256Z,11.07
2018-05-27T11:38:58.914Z,12.36
2018-05-27T11:41:26.451Z,13.34
2018-05-27T11:43:54.021Z,14.21
2018-05-27T11:46:22.101Z,13.75
2018-05-27T11:48:49.597Z,14.08
2018-05-27T11:51:17.440Z,13.99
2018-05-27T11:53:44.991Z,13.99
2018-05-27T11:56:12.461Z,13.51
2018-05-27T11:58:39.925Z,14.80
2018-05-27T12:01:07.545Z,14.71
2018-05-27T12:03:35.126Z,14.38
2018-05-27T12:06:02.720Z,14.92
2018-05-27T12:08:30.455Z,13.94
2018-05-27T12:10:58.118Z,15.27
2018-05-27T12:13:25.680Z,15.59
2018-05-27T12:15:53.288Z,15.65
2018-05-27T12:18:21.718Z,15.99
2018-05-27T12:20:49.248Z,18.00
2018-05-27T12:23:16.930Z,17.71
2018-05-27T12:25:44.464Z,17.23
2018-05-27T12:28:12.186Z,17.24
2018-05-27T12:30:39.808Z,18.53
2018-05-27T12:33:07.332Z,18.18
2018-05-27T12:35:35.341Z,17.96
2018-05-27T12:38:02.847Z,18.48
2018-05-27T12:40:30.390Z,18.78
2018-05-27T12:42:57.866Z,20.06
2018-05-27T12:45:25.426Z,19.43
2018-05-27T12:47:52.891Z,18.89
2018-05-27T12:50:20.970Z,19.99
2018-05-27T12:52:48.432Z,18.82
2018-05-27T12:55:15.935Z,20.46
2018-05-27T12:57:43.411Z,22.46
2018-05-27T13:00:11.091Z,24.05
2018-05-27T13:02:38.621Z,23.29
2018-05-27T13:05:06.192Z,25.58
2018-05-27T13:07:34.360Z,24.00
2018-05-27T13:10:02.885Z,22.64
2018-05-27T13:12:30.390Z,23.25
2018-05-27T13:14:57.890Z,22.38
2018-05-27T13:17:25.421Z,23.25
2018-05-27T13:19:52.963Z,25.00
2018-05-27T13:22:20.428Z,27.12
2018-05-27T13:24:47.956Z,27.63
2018-05-27T13:27:15.696Z,27.10
2018-05-27T13:29:43.348Z,27.44
2018-05-27T13:32:11.302Z,28.28
2018-05-27T13:34:38.898Z,27.43
2018-05-27T13:37:06.983Z,29.28
2018-05-27T13:39:34.445Z,29.28
2018-05-27T13:42:02.218Z,30.52
2018-05-27T13:44:29.912Z,30.13
2018-05-27T13:46:58.492Z,30.49
2018-05-27T13:49:26.189Z,31.87
2018-05-27T13:51:53.681Z,31.73
2018-05-27T13:54:21.178Z,32.17
2018-05-27T13:56:48.907Z,36.19
2018-05-27T13:59:16.407Z,38.44
2018-05-27T14:01:44.163Z,36.59
2018-05-27T14:04:11.742Z,36.75
2018-05-27T14:06:40.139Z,36.64
2018-05-27T14:09:07.832Z,37.19
2018-05-27T14:11:35.572Z,38.68
2018-05-27T14:14:03.759Z,39.66
2018-05-27T14:16:31.288Z,41.65
2018-05-27T14:18:58.878Z,43.87
2018-05-27T14:21:26.493Z,45.17
2018-05-27T14:23:53.957Z,45.91
2018-05-27T14:26:21.592Z,44.71
2018-05-27T14:28:49.482Z,43.08
2018-05-27T14:31:16.990Z,42.63
2018-05-27T14:33:45.562Z,46.00
2018-05-27T14:36:13.026Z,47.09
2018-05-27T14:38:40.497Z,47.27
2018-05-27T14:41:08.022Z,46.96
2018-05-27T14:43:35.516Z,47.68
2018-05-27T14:46:03.233Z,48.79
2018-05-27T14:48:30.787Z,46.81
2018-05-27T14:50:58.383Z,43.45
2018-05-27T14:53:25.918Z,41.94
2018-05-27T14:55:53.472Z,42.52
2018-05-27T14:58:21.109Z,42.51
2018-05-27T15:00:48.846Z,41.12
2018-05-27T15:03:16.708Z,38.40
2018-05-27T15:05:44.289Z,38.26
2018-05-27T15:08:12.513Z,38.54
2018-05-27T15:10:40.007Z,39.22
2018-05-27T15:13:07.578Z,38.43
2018-05-27T15:15:35.083Z,38.99
2018-05-27T15:18:02.857Z,40.05
2018-05-27T15:20:30.415Z,40.28
2018-05-27T15:22:57.996Z,41.56
2018-05-27T15:25:25.551Z,42.85
2018-05-27T15:27:53.106Z,41.62
2018-05-27T15:30:20.663Z,41.60
2018-05-27T15:32:48.404Z,41.01
2018-05-27T15:35:16.027Z,41.54
2018-05-27T15:37:43.592Z,41.81
2018-05-27T15:40:11.108Z,40.59
2018-05-27T15:42:38.799Z,40.31
2018-05-27T15:45:06.673Z,40.38
2018-05-27T15:47:34.755Z,40.63
2018-05-27T15:50:02.204Z,40.15
2018-05-27T15:52:29.769Z,40.42
2018-05-27T15:54:57.366Z,39.40
2018-05-27T15:57:24.857Z,38.54
2018-05-27T15:59:52.402Z,38.00
2018-05-27T16:02:20.888Z,38.87
2018-05-27T16:04:48.486Z,39.54
2018-05-27T16:07:15.992Z,40.14
2018-05-27T16:09:44.148Z,39.32
2018-05-27T16:12:11.623Z,38.90
2018-05-27T16:14:39.104Z,38.53
2018-05-27T16:17:06.799Z,38.86
2018-05-27T16:19:34.415Z,39.02
2018-05-27T16:22:01.875Z,40.46
2018-05-27T16:24:29.432Z,39.65
2018-05-27T16:26:57.175Z,40.00
2018-05-27T16:29:24.862Z,40.56
2018-05-27T16:31:52.423Z,41.08
2018-05-27T16:34:19.908Z,41.11
2018-05-27T16:36:47.417Z,41.13
2018-05-27T16:39:15.018Z,40.02
2018-05-27T16:41:42.678Z,39.38
2018-05-27T16:44:10.674Z,39.49
2018-05-27T16:46:39.119Z,39.57
2018-05-27T16:49:07.352Z,39.91
2018-05-27T16:51:35.024Z,39.99
2018-05-27T16:54:02.782Z,41.31
2018-05-27T16:56:30.374Z,41.23
2018-05-27T16:58:57.972Z,41.98
2018-05-27T17:01:25.577Z,41.28
2018-05-27T17:03:53.369Z,42.49
2018-05-27T17:06:21.321Z,41.78
2018-05-27T17:08:49.113Z,41.85
2018-05-27T17:11:16.802Z,43.41
2018-05-27T17:13:44.391Z,43.87
2018-05-27T17:16:12.112Z,43.43
2018-05-27T17:18:39.950Z,44.05
2018-05-27T17:21:07.618Z,46.07
2018-05-27T17:23:35.244Z,47.33
2018-05-27T17:26:02.918Z,46.21
2018-05-27T17:28:30.572Z,50.14
2018-05-27T17:30:58.199Z,51.11
2018-05-27T17:33:25.689Z,52.98
2018-05-27T17:35:53.341Z,53.57
2018-05-27T17:38:20.970Z,54.72
2018-05-27T17:40:48.933Z,56.53
2018-05-27T17:43:16.428Z,56.28
2018-05-27T17:45:44.047Z,57.46
2018-05-27T17:48:12.900Z,58.44
2018-05-27T17:50:40.609Z,58.22
2018-05-27T17:53:08.909Z,59.69
2018-05-27T17:55:36.396Z,61.34
2018-05-27T17:58:04.084Z,61.46
2018-05-27T18:00:31.695Z,61.90
2018-05-27T18:02:59.288Z,61.89
2018-05-27T18:05:26.767Z,62.87
2018-05-27T18:07:54.332Z,62.95
2018-05-27T18:10:22.640Z,63.52
2018-05-27T18:12:49.839Z,64.47
2018-05-27T18:15:17.068Z,64.31
2018-05-27T18:17:44.657Z,64.56
2018-05-27T18:20:12.134Z,65.35
2018-05-27T18:22:39.954Z,65.26
2018-05-27T18:25:07.627Z,65.99
2018-05-27T18:27:35.143Z,66.19
2018-05-27T18:30:03.049Z,66.48
2018-05-27T18:32:30.708Z,66.55
2018-05-27T18:34:57.880Z,68.08
2018-05-27T18:37:24.999Z,69.33
2018-05-27T18:39:52.012Z,70.59
2018-05-27T18:42:19.166Z,71.75
2018-05-27T18:44:46.213Z,72.32
2018-05-27T18:47:13.324Z,72.72
2018-05-27T18:49:40.684Z,72.58
2018-05-27T18:52:07.860Z,72.81
2018-05-27T18:54:34.954Z,73.09
2018-05-27T18:57:02.010Z,73.83
2018-05-27T18:59:29.018Z,74.48
2018-05-27T19:01:56.033Z,74.81
2018-05-27T19:04:23.220Z,74.87
2018-05-27T19:06:50.347Z,75.82
2018-05-27T19:09:17.425Z,76.63
2018-05-27T19:11:44.715Z,76.69
2018-05-27T19:14:11.901Z,77.50
2018-05-27T19:16:38.938Z,77.30
2018-05-27T19:19:06.460Z,77.56
2018-05-27T19:21:33.525Z,77.58
2018-05-27T19:24:00.623Z,77.97
2018-05-27T19:26:27.626Z,78.29
2018-05-27T19:28:54.737Z,78.40
2018-05-27T19:31:21.843Z,78.58
2018-05-27T19:33:48.857Z,78.89
2018-05-27T19:36:15.969Z,78.91
2018-05-27T19:38:42.974Z,78.85
2018-05-27T19:41:10.005Z,79.25
2018-05-27T19:43:37.080Z,79.61
2018-05-27T19:46:04.193Z,80.46
2018-05-27T19:48:31.239Z,80.82
2018-05-27T19:50:58.780Z,80.86
2018-05-27T19:53:26.108Z,81.05
2018-05-27T19:55:53.494Z,81.10
2018-05-27T19:58:20.764Z,81.17
2018-05-27T20:00:47.876Z,80.94
2018-05-27T20:03:15.214Z,80.89
2018-05-27T20:05:42.368Z,80.73
2018-05-27T20:08:09.623Z,80.77
2018-05-27T20:10:37.003Z,80.70
2018-05-27T20:13:04.240Z,80.55
2018-05-27T20:15:31.574Z,80.45
2018-05-27T20:17:58.955Z,80.26
2018-05-27T20:20:26.062Z,80.23
2018-05-27T20:22:53.211Z,80.25
2018-05-27T20:25:20.690Z,80.05
2018-05-27T20:27:48.120Z,79.91
2018-05-27T20:30:15.235Z,79.71
2018-05-27T20:32:42.484Z,79.36
2018-05-27T20:35:09.741Z,79.08
2018-05-27T20:37:36.799Z,79.31
2018-05-27T20:40:03.861Z,79.88
2018-05-27T20:42:31.092Z,80.33
2018-05-27T20:44:58.099Z,80.71
2018-05-27T20:47:25.184Z,81.24
2018-05-27T20:49:52.326Z,81.44
2018-05-27T20:52:19.985Z,81.64
2018-05-27T20:54:46.984Z,81.51
2018-05-27T20:57:13.990Z,82.04
2018-05-27T20:59:41.158Z,82.52
2018-05-27T21:02:08.185Z,82.64
2018-05-27T21:04:35.229Z,82.33
2018-05-27T21:07:02.378Z,82.55
2018-05-27T21:09:29.464Z,82.83
2018-05-27T21:11:56.674Z,83.05
2018-05-27T21:14:23.743Z,83.06
2018-05-27T21:16:50.845Z,83.43
2018-05-27T21:19:17.865Z,82.87
2018-05-27T21:21:44.915Z,82.46
2018-05-27T21:24:12.112Z,82.20
2018-05-27T21:26:39.844Z,82.44
2018-05-27T21:29:06.897Z,82.08
2018-05-27T21:31:33.961Z,81.90
2018-05-27T21:34:01.109Z,82.40
2018-05-27T21:36:28.376Z,82.60
2018-05-27T21:38:55.444Z,83.17
2018-05-27T21:41:22.664Z,83.32
2018-05-27T21:43:49.980Z,83.34
2018-05-27T21:46:17.731Z,83.97
2018-05-27T21:48:44.803Z,84.41
2018-05-27T21:51:12.019Z,84.29
2018-05-27T21:53:39.037Z,84.44
2018-05-27T21:56:06.068Z,84.36
2018-05-27T21:58:33.072Z,84.15
2018-05-27T22:01:00.818Z,84.20
2018-05-27T22:03:27.828Z,84.10
2018-05-27T22:05:54.846Z,84.56
2018-05-27T22:08:21.885Z,84.64
2018-05-27T22:10:48.915Z,84.40
2018-05-27T22:13:15.924Z,84.79
2018-05-27T22:15:43.068Z,84.74
2018-05-27T22:18:10.193Z,85.01
2018-05-27T22:20:37.425Z,85.19
2018-05-27T22:23:04.663Z,85.51
2018-05-27T22:25:31.835Z,85.92
2018-05-27T22:27:58.862Z,86.26
2018-05-27T22:30:26.161Z,86.60
2018-05-27T22:32:53.935Z,87.34
2018-05-27T22:35:20.994Z,87.28
2018-05-27T22:37:48.160Z,87.57
2018-05-27T22:40:15.269Z,87.81
2018-05-27T22:42:42.366Z,87.62
2018-05-27T22:45:09.391Z,87.72
2018-05-27T22:47:36.479Z,87.35
2018-05-27T22:50:03.509Z,87.76
2018-05-27T22:52:30.636Z,88.15
2018-05-27T22:54:57.796Z,88.48
2018-05-27T22:57:24.784Z,89.08
2018-05-27T22:59:51.795Z,89.01
2018-05-27T23:02:18.859Z,88.73
2018-05-27T23:04:46.473Z,89.19
2018-05-27T23:07:13.540Z,89.49
2018-05-27T23:09:40.589Z,89.50
2018-05-27T23:12:07.605Z,89.87
2018-05-27T23:14:34.633Z,90.03
2018-05-27T23:17:01.720Z,89.70
2018-05-27T23:19:28.932Z,89.54
2018-05-27T23:21:56.275Z,89.54
2018-05-27T23:24:23.410Z,89.76
2018-05-27T23:26:50.434Z,90.31
2018-05-27T23:29:17.459Z,90.76
2018-05-27T23:31:44.484Z,90.37
2018-05-27T23:34:11.591Z,90.41
2018-05-27T23:36:38.864Z,89.92
2018-05-27T23:39:06.097Z,90.06
2018-05-27T23:41:33.157Z,89.61
2018-05-27T23:44:00.186Z,89.78
2018-05-27T23:46:27.246Z,89.87
2018-05-27T23:48:54.286Z,90.75
2018-05-27T23:51:21.475Z,90.80
2018-05-27T23:53:48.477Z,91.31
2018-05-27T23:56:15.524Z,90.74
2018-05-27T23:58:42.579Z,90.10
